createdAt,value
2022-11-22T00:03:21.846Z,7.73
2022-11-22T00:08:23.899Z,6.40
2022-11-22T00:13:26.017Z,7.57
2022-11-22T00:18:30.002Z,7.27
2022-11-22T00:23:32.137Z,8.60
2022-11-22T00:28:34.014Z,7.37
2022-11-22T00:33:37.339Z,8.13
2022-11-22T00:38:39.270Z,7.17
2022-11-22T00:43:41.307Z,7.40
2022-11-22T00:48:44.955Z,8.27
2022-11-22T00:53:47.052Z,8.50
2022-11-22T00:58:49.063Z,7.50
2022-11-22T01:03:52.631Z,8.50
2022-11-22T01:08:54.718Z,7.40
2022-11-22T01:13:56.980Z,7.77
2022-11-22T01:19:00.852Z,7.70
2022-11-22T01:24:02.971Z,7.53
2022-11-22T01:29:05.484Z,9.23
2022-11-22T01:34:08.775Z,9.57
2022-11-22T01:39:10.910Z,8.30
2022-11-22T01:44:21.684Z,9.23
2022-11-22T01:49:31.207Z,8.33
2022-11-22T01:54:38.817Z,9.87
2022-11-22T01:59:46.316Z,9.53
2022-11-22T02:04:52.218Z,9.50
2022-11-22T02:09:54.819Z,8.70
2022-11-22T02:14:57.477Z,7.30
2022-11-22T02:20:00.892Z,7.57
2022-11-22T02:25:12.097Z,8.53
2022-11-22T02:30:16.282Z,9.23
2022-11-22T02:35:20.208Z,8.83
2022-11-22T02:40:23.525Z,8.80
2022-11-22T02:45:27.120Z,7.80
2022-11-22T02:50:28.780Z,9.17
2022-11-22T02:55:30.969Z,8.27
2022-11-22T03:00:35.478Z,9.17
2022-11-22T03:05:37.314Z,7.87
2022-11-22T03:10:39.062Z,7.27
2022-11-22T03:15:42.529Z,9.27
2022-11-22T03:20:44.876Z,8.40
2022-11-22T03:25:47.167Z,9.77
2022-11-22T03:30:50.625Z,9.80
2022-11-22T03:35:56.039Z,8.70
2022-11-22T03:40:58.411Z,8.47
2022-11-22T03:46:02.230Z,11.03
2022-11-22T03:51:05.336Z,9.87
2022-11-22T03:56:07.603Z,8.60
2022-11-22T04:01:16.304Z,9.60
2022-11-22T04:06:19.018Z,9.83
2022-11-22T04:11:21.452Z,10.77
2022-11-22T04:16:25.016Z,9.70
2022-11-22T04:21:27.330Z,10.97
2022-11-22T04:26:29.016Z,10.80
2022-11-22T04:31:32.510Z,10.27
2022-11-22T04:36:34.413Z,11.23
2022-11-22T04:41:36.497Z,10.60
2022-11-22T04:46:40.005Z,10.93
2022-11-22T04:51:41.756Z,12.20
2022-11-22T04:56:43.910Z,12.53
2022-11-22T05:01:47.378Z,12.97
2022-11-22T05:06:51.774Z,11.50
2022-11-22T05:11:53.910Z,11.47
2022-11-22T05:16:57.583Z,10.47
2022-11-22T05:22:00.238Z,12.83
2022-11-22T05:27:02.320Z,13.60
2022-11-22T05:32:05.915Z,11.47
2022-11-22T05:37:08.086Z,13.00
2022-11-22T05:42:10.171Z,12.33
2022-11-22T05:47:13.720Z,11.97
2022-11-22T05:52:16.511Z,12.77
2022-11-22T05:57:18.954Z,12.33
2022-11-22T06:02:22.555Z,12.00
2022-11-22T06:07:24.858Z,13.73
2022-11-22T06:12:27.277Z,13.40
2022-11-22T06:17:30.947Z,12.57
2022-11-22T06:22:32.916Z,11.40
2022-11-22T06:27:35.066Z,14.77
2022-11-22T06:32:38.106Z,12.77
2022-11-22T06:37:40.341Z,14.60
2022-11-22T06:42:42.527Z,14.07
2022-11-22T06:47:46.023Z,15.43
2022-11-22T06:52:51.184Z,13.07
2022-11-22T06:57:53.255Z,13.30
2022-11-22T07:02:56.670Z,12.90
2022-11-22T07:08:05.433Z,13.83
2022-11-22T07:13:11.382Z,12.00
2022-11-22T07:18:14.392Z,12.87
2022-11-22T07:23:17.376Z,13.43
2022-11-22T07:28:19.209Z,10.90
2022-11-22T07:33:22.204Z,12.53
2022-11-22T07:38:23.878Z,13.83
2022-11-22T07:43:26.048Z,12.87
2022-11-22T07:48:29.745Z,12.50
2022-11-22T07:53:32.179Z,14.80
2022-11-22T07:58:35.192Z,11.90
2022-11-22T08:03:38.574Z,13.17
2022-11-22T08:08:41.005Z,12.67
2022-11-22T08:13:43.034Z,12.30
2022-11-22T08:18:49.548Z,12.60
2022-11-22T08:23:51.805Z,11.37
2022-11-22T08:28:53.741Z,13.53
2022-11-22T08:33:57.087Z,12.30
2022-11-22T08:38:59.401Z,14.47
2022-11-22T08:44:01.109Z,15.50
2022-11-22T08:49:04.519Z,11.57
2022-11-22T08:54:06.456Z,12.40
2022-11-22T08:59:08.634Z,11.90
2022-11-22T09:04:11.990Z,11.67
2022-11-22T09:14:36.513Z,11.80
2022-11-22T09:19:40.116Z,10.97
2022-11-22T09:24:42.412Z,12.23
2022-11-22T09:29:44.503Z,10.47
2022-11-22T09:34:47.972Z,12.03
2022-11-22T09:39:50.001Z,12.47
2022-11-22T09:45:22.274Z,12.20
2022-11-22T09:50:34.194Z,11.83
2022-11-22T09:55:42.097Z,10.80
2022-11-22T10:00:49.184Z,12.10
2022-11-22T10:05:59.021Z,11.70
2022-11-22T10:11:03.805Z,10.37
2022-11-22T10:16:14.656Z,10.90
2022-11-22T10:21:19.953Z,10.87
2022-11-22T10:26:26.399Z,10.17
2022-11-22T10:31:34.477Z,11.33
2022-11-22T10:36:47.131Z,10.77
2022-11-22T10:42:01.622Z,11.60
2022-11-22T10:47:16.206Z,11.27
2022-11-22T10:52:30.642Z,11.40
2022-11-22T10:57:39.062Z,11.73
2022-11-22T11:03:03.329Z,11.03
2022-11-22T11:08:38.956Z,12.90
2022-11-22T11:13:37.756Z,12.80
2022-11-22T11:18:43.512Z,10.77
2022-11-22T11:23:47.124Z,12.20
2022-11-22T11:28:50.166Z,12.07
2022-11-22T11:33:52.270Z,11.10
2022-11-22T11:38:59.438Z,10.53
2022-11-22T11:44:03.168Z,11.93
2022-11-22T11:49:10.304Z,11.63
2022-11-22T11:54:16.090Z,10.80
2022-11-22T11:59:19.747Z,10.67
2022-11-22T12:04:25.451Z,11.80
2022-11-22T12:09:31.528Z,10.07
2022-11-22T12:15:03.329Z,10.57
2022-11-22T12:20:02.642Z,10.43
2022-11-22T12:25:31.996Z,10.57
2022-11-22T12:30:38.832Z,11.50
2022-11-22T12:35:44.992Z,11.90
2022-11-22T12:40:51.705Z,10.47
2022-11-22T12:45:57.063Z,10.57
2022-11-22T12:51:03.883Z,11.17
2022-11-22T12:56:19.308Z,10.83
2022-11-22T13:01:25.891Z,11.53
2022-11-22T13:06:34.997Z,10.57
2022-11-22T13:11:45.289Z,10.50
2022-11-22T13:16:49.163Z,11.50
2022-11-22T13:22:08.225Z,10.07
2022-11-22T13:27:19.342Z,10.13
2022-11-22T13:32:23.280Z,10.50
2022-11-22T13:37:26.795Z,9.73
2022-11-22T13:42:29.968Z,11.20
2022-11-22T13:47:45.164Z,10.87
2022-11-22T13:52:51.780Z,10.87
2022-11-22T13:57:55.360Z,11.03
2022-11-22T14:03:24.210Z,10.10
2022-11-22T14:08:33.143Z,10.80
2022-11-22T14:13:45.865Z,10.70
2022-11-22T14:18:56.380Z,12.00
2022-11-22T14:24:06.109Z,10.80
2022-11-22T14:29:47.122Z,11.30
2022-11-22T14:35:18.539Z,11.90
2022-11-22T14:40:31.451Z,10.93
2022-11-22T14:45:43.572Z,10.37
2022-11-22T14:50:58.513Z,10.03
2022-11-22T14:56:06.578Z,12.03
2022-11-22T15:01:40.335Z,9.50
2022-11-22T15:09:12.784Z,10.37
2022-11-22T15:12:36.181Z,9.83
2022-11-22T16:01:20.500Z,10.33
2022-11-22T16:06:25.810Z,11.37
2022-11-22T16:11:29.952Z,10.13
2022-11-22T16:16:33.584Z,12.27
2022-11-22T16:21:37.069Z,12.00
2022-11-22T16:26:39.521Z,11.97
2022-11-22T16:31:41.608Z,9.93
2022-11-22T16:36:45.019Z,11.20
2022-11-22T16:41:47.968Z,11.43
2022-11-22T16:46:50.507Z,11.53
2022-11-22T16:51:53.726Z,11.13
2022-11-22T16:56:56.408Z,11.43
2022-11-22T17:01:59.922Z,10.47
2022-11-22T17:07:03.210Z,13.33
2022-11-22T17:12:13.345Z,11.57
2022-11-22T17:17:15.465Z,13.03
2022-11-22T17:22:19.252Z,13.23
2022-11-22T17:27:20.959Z,13.83
2022-11-22T17:32:22.636Z,12.53
2022-11-22T17:37:26.199Z,14.03
2022-11-22T17:42:28.420Z,12.93
2022-11-22T17:47:30.532Z,12.57
2022-11-22T17:52:34.024Z,12.97
2022-11-22T17:57:36.054Z,14.30
2022-11-22T18:02:38.099Z,13.97
2022-11-22T18:07:41.844Z,12.17
2022-11-22T18:12:58.608Z,13.07
2022-11-22T18:18:06.446Z,13.40
2022-11-22T18:23:10.123Z,13.90
2022-11-22T18:28:13.177Z,13.00
2022-11-22T18:33:15.406Z,14.90
2022-11-22T18:38:18.529Z,13.27
2022-11-22T18:43:21.040Z,12.83
2022-11-22T18:48:23.322Z,12.77
2022-11-22T18:53:28.356Z,14.20
2022-11-22T18:58:34.557Z,13.90
2022-11-22T19:03:36.507Z,17.03
2022-11-22T19:08:41.979Z,14.10
2022-11-22T19:13:44.576Z,14.93
2022-11-22T19:18:46.267Z,14.43
2022-11-22T19:23:50.007Z,14.60
2022-11-22T19:28:52.926Z,15.17
2022-11-22T19:33:55.147Z,13.93
2022-11-22T19:38:58.305Z,15.00
2022-11-22T19:44:00.946Z,14.57
2022-11-22T19:49:03.322Z,15.00
2022-11-22T19:54:07.240Z,15.27
2022-11-22T19:59:11.145Z,14.63
2022-11-22T20:04:13.881Z,13.57
2022-11-22T20:09:16.956Z,14.47
2022-11-22T20:14:19.007Z,13.67
2022-11-22T20:19:21.055Z,14.17
2022-11-22T20:24:24.465Z,14.33
2022-11-22T20:29:26.918Z,14.20
2022-11-22T20:34:29.072Z,14.30
2022-11-22T20:39:32.593Z,14.70
2022-11-22T20:44:34.524Z,14.27
2022-11-22T20:49:38.813Z,14.17
2022-11-22T20:54:44.144Z,15.03
2022-11-22T20:59:46.173Z,12.50
2022-11-22T21:04:47.916Z,14.30
2022-11-22T21:09:50.995Z,14.23
2022-11-22T21:14:53.909Z,13.63
2022-11-22T21:19:58.544Z,13.73
2022-11-22T21:25:01.614Z,12.63
2022-11-22T21:30:03.814Z,13.57
2022-11-22T21:35:06.961Z,13.87
2022-11-22T21:40:11.867Z,12.83
2022-11-22T21:45:14.321Z,13.43
2022-11-22T21:50:16.685Z,11.60
2022-11-22T21:55:20.265Z,12.60
2022-11-22T22:00:22.982Z,12.93
2022-11-22T22:05:25.263Z,13.67
2022-11-22T22:10:28.349Z,12.83
2022-11-22T22:15:30.383Z,14.40
2022-11-22T22:20:32.518Z,13.33
2022-11-22T22:25:39.009Z,12.47
2022-11-22T22:30:41.068Z,13.93
2022-11-22T22:35:42.997Z,13.23
2022-11-22T22:40:52.452Z,13.53
2022-11-22T22:45:54.815Z,13.87
2022-11-22T22:50:56.642Z,14.60
2022-11-22T22:56:00.197Z,12.67
2022-11-22T23:01:07.075Z,13.30
2022-11-22T23:06:11.393Z,12.70
2022-11-22T23:11:16.392Z,14.43
2022-11-22T23:16:18.402Z,13.77
2022-11-22T23:21:20.079Z,13.20
2022-11-22T23:26:23.707Z,14.90
2022-11-22T23:31:26.722Z,14.70
2022-11-22T23:36:28.598Z,12.93
2022-11-22T23:41:31.690Z,14.23
2022-11-22T23:46:33.849Z,15.20
2022-11-22T23:51:38.540Z,14.27
2022-11-22T23:56:42.261Z,14.47
